Time,TemperatureF,DewpointF,PressureIn,WindDirection,WindDirectionDegrees,WindSpeedMPH,WindSpeedGustMPH,Humidity,HourlyPrecipIn,Conditions,Clouds,dailyrainin,SoftwareType,DateUTC
2013-04-15 00:03:00,68.0,-99.9,-100.00,NW,322,3.0,8.0,-999,0.00,,,-99.99,,2013-04-15 05:03:00,
2013-04-15 00:13:00,68.0,-99.9,-100.00,NW,322,3.0,8.0,-999,0.00,,,-99.99,,2013-04-15 05:13:00,
2013-04-15 00:23:00,66.0,-99.9,-100.00,NW,322,7.0,11.0,-999,0.00,,,-99.99,,2013-04-15 05:23:00,
2013-04-15 00:33:00,66.0,-99.9,-100.00,NNW,339,6.0,8.0,-999,0.00,,,-99.99,,2013-04-15 05:33:00,
2013-04-15 00:43:00,66.0,-99.9,-100.00,NNW,339,6.0,8.0,-999,0.00,,,-99.99,,2013-04-15 05:43:00,
2013-04-15 00:53:00,66.0,-99.9,-100.00,NNW,343,6.0,9.0,-999,0.00,,,-99.99,,2013-04-15 05:53:00,
2013-04-15 01:02:00,66.0,-99.9,-100.00,North,352,7.0,10.0,-999,0.00,,,-99.99,,2013-04-15 06:02:00,
2013-04-15 01:12:00,66.0,-99.9,-100.00,North,352,7.0,10.0,-999,0.00,,,-99.99,,2013-04-15 06:12:00,
2013-04-15 01:23:00,65.0,-99.9,-100.00,NNE,13,8.0,11.0,-999,0.00,,,-99.99,,2013-04-15 06:23:00,
2013-04-15 01:34:00,62.0,-99.9,-100.00,North,359,8.0,11.0,-999,0.00,,,-99.99,,2013-04-15 06:34:00,
2013-04-15 01:43:00,62.0,-99.9,-100.00,North,359,8.0,11.0,-999,0.00,,,-99.99,,2013-04-15 06:43:00,
2013-04-15 01:53:00,57.0,-99.9,-100.00,NNW,347,8.0,12.0,-999,0.00,,,-99.99,,2013-04-15 06:53:00,
2013-04-15 02:03:00,58.0,-99.9,-100.00,NNE,15,7.0,10.0,-999,0.00,,,-99.99,,2013-04-15 07:03:00,
2013-04-15 02:42:00,58.0,-99.9,-100.00,NNE,15,7.0,10.0,-999,0.00,,,-99.99,,2013-04-15 07:42:00,
2013-04-15 02:54:00,62.0,-99.9,-100.00,NNE,15,6.0,10.0,-999,0.00,,,-99.99,,2013-04-15 07:54:00,
2013-04-15 03:03:00,62.0,-99.9,-100.00,NNW,347,6.0,9.0,-999,0.00,,,-99.99,,2013-04-15 08:03:00,
2013-04-15 03:14:00,62.0,-99.9,-100.00,NNW,347,6.0,9.0,-999,0.00,,,-99.99,,2013-04-15 08:14:00,
2013-04-15 03:23:00,62.0,-99.9,-100.00,NNW,347,7.0,9.0,-999,0.00,,,-99.99,,2013-04-15 08:23:00,
2013-04-15 03:35:00,62.0,-99.9,-100.00,North,349,7.0,11.0,-999,0.00,,,-99.99,,2013-04-15 08:35:00,
2013-04-15 03:43:00,62.0,-99.9,-100.00,North,349,7.0,11.0,-999,0.00,,,-99.99,,2013-04-15 08:43:00,
2013-04-15 03:52:00,62.0,-99.9,-100.00,North,350,8.0,11.0,-999,0.00,,,-99.99,,2013-04-15 08:52:00,
2013-04-15 04:03:00,62.0,-99.9,-100.00,North,352,10.0,15.0,-999,0.00,,,-99.99,,2013-04-15 09:03:00,
2013-04-15 04:13:00,62.0,-99.9,-100.00,North,352,10.0,15.0,-999,0.00,,,-99.99,,2013-04-15 09:13:00,
2013-04-15 04:23:00,61.0,-99.9,-100.00,North,357,9.0,14.0,-999,0.00,,,-99.99,,2013-04-15 09:23:00,
2013-04-15 04:33:00,61.0,-99.9,-100.00,NNW,343,11.0,15.0,-999,0.00,,,-99.99,,2013-04-15 09:33:00,
2013-04-15 04:43:00,61.0,-99.9,-100.00,NNW,343,11.0,15.0,-999,0.00,,,-99.99,,2013-04-15 09:43:00,
2013-04-15 04:53:00,61.0,-99.9,-100.00,North,6,9.0,11.0,-999,0.00,,,-99.99,,2013-04-15 09:53:00,
2013-04-15 05:03:00,61.0,-99.9,-100.00,NNW,347,9.0,13.0,-999,0.00,,,-99.99,,2013-04-15 10:03:00,
2013-04-15 05:13:00,61.0,-99.9,-100.00,NNW,347,9.0,13.0,-999,0.00,,,-99.99,,2013-04-15 10:13:00,
2013-04-15 05:23:00,60.0,-99.9,-100.00,NNW,346,8.0,11.0,-999,0.00,,,-99.99,,2013-04-15 10:23:00,
2013-04-15 05:33:00,60.0,-99.9,-100.00,North,6,9.0,15.0,-999,0.00,,,-99.99,,2013-04-15 10:33:00,
2013-04-15 05:42:00,60.0,-99.9,-100.00,North,6,9.0,15.0,-999,0.00,,,-99.99,,2013-04-15 10:42:00,
2013-04-15 05:53:00,59.0,-99.9,-100.00,NNW,335,9.0,13.0,-999,0.00,,,-99.99,,2013-04-15 10:53:00,
2013-04-15 06:03:00,59.0,-99.9,-100.00,NNW,342,11.0,15.0,-999,0.00,,,-99.99,,2013-04-15 11:03:00,
2013-04-15 06:13:00,59.0,-99.9,-100.00,NNW,342,11.0,15.0,-999,0.00,,,-99.99,,2013-04-15 11:13:00,
2013-04-15 06:23:00,58.0,-99.9,-100.00,NNW,347,11.0,16.0,-999,0.00,,,-99.99,,2013-04-15 11:23:00,
2013-04-15 06:33:00,58.0,-99.9,-100.00,North,0,11.0,16.0,-999,0.00,,,-99.99,,2013-04-15 11:33:00,
2013-04-15 06:44:00,58.0,-99.9,-100.00,North,0,11.0,16.0,-999,0.00,,,-99.99,,2013-04-15 11:44:00,
2013-04-15 06:54:00,57.0,-99.9,-100.00,North,1,11.0,17.0,-999,0.00,,,-99.99,,2013-04-15 11:54:00,
2013-04-15 07:05:00,56.0,-99.9,-100.00,NNE,14,12.0,17.0,-999,0.00,,,-99.99,,2013-04-15 12:05:00,
2013-04-15 07:15:00,56.0,-99.9,-100.00,NNE,14,12.0,17.0,-999,0.00,,,-99.99,,2013-04-15 12:15:00,
2013-04-15 07:24:00,56.0,-99.9,-100.00,North,1,11.0,16.0,-999,0.00,,,-99.99,,2013-04-15 12:24:00,
2013-04-15 07:35:00,56.0,-99.9,-100.00,North,3,10.0,14.0,-999,0.00,,,-99.99,,2013-04-15 12:35:00,
2013-04-15 07:43:00,56.0,-99.9,-100.00,North,3,10.0,14.0,-999,0.00,,,-99.99,,2013-04-15 12:43:00,
2013-04-15 07:54:00,56.0,-99.9,-100.00,North,3,11.0,15.0,-999,0.00,,,-99.99,,2013-04-15 12:54:00,
2013-04-15 08:05:00,55.0,-99.9,-100.00,North,8,10.0,14.0,-999,0.00,,,-99.99,,2013-04-15 13:05:00,
2013-04-15 08:13:00,55.0,-99.9,-100.00,North,8,10.0,14.0,-999,0.00,,,-99.99,,2013-04-15 13:13:00,
2013-04-15 08:24:00,56.0,-99.9,-100.00,NNE,15,10.0,13.0,-999,0.00,,,-99.99,,2013-04-15 13:24:00,
2013-04-15 08:34:00,55.0,-99.9,-100.00,NNE,20,9.0,14.0,-999,0.00,,,-99.99,,2013-04-15 13:34:00,
2013-04-15 08:43:00,55.0,-99.9,-100.00,NNE,20,9.0,14.0,-999,0.00,,,-99.99,,2013-04-15 13:43:00,
2013-04-15 08:54:00,56.0,-99.9,-100.00,North,3,10.0,14.0,-999,0.00,,,-99.99,,2013-04-15 13:54:00,
2013-04-15 09:06:00,56.0,-99.9,-100.00,North,0,10.0,14.0,-999,0.00,,,-99.99,,2013-04-15 14:06:00,
2013-04-15 09:14:00,56.0,-99.9,-100.00,North,0,10.0,14.0,-999,0.00,,,-99.99,,2013-04-15 14:14:00,
2013-04-15 09:23:00,57.0,-99.9,-100.00,NNE,17,8.0,11.0,-999,0.00,,,-99.99,,2013-04-15 14:23:00,
2013-04-15 09:34:00,57.0,-99.9,-100.00,NNE,27,8.0,13.0,-999,0.00,,,-99.99,,2013-04-15 14:34:00,
2013-04-15 09:45:00,57.0,-99.9,-100.00,NNE,27,8.0,13.0,-999,0.00,,,-99.99,,2013-04-15 14:45:00,
2013-04-15 09:55:00,57.0,-99.9,-100.00,NNE,20,8.0,12.0,-999,0.00,,,-99.99,,2013-04-15 14:55:00,
2013-04-15 10:04:00,58.0,-99.9,-100.00,NNE,30,7.0,11.0,-999,0.00,,,-99.99,,2013-04-15 15:04:00,
2013-04-15 10:13:00,58.0,-99.9,-100.00,NNE,30,7.0,11.0,-999,0.00,,,-99.99,,2013-04-15 15:13:00,
2013-04-15 10:25:00,59.0,-99.9,-100.00,NNE,31,7.0,10.0,-999,0.00,,,-99.99,,2013-04-15 15:25:00,
2013-04-15 10:37:00,59.0,-99.9,-100.00,NNE,14,5.0,7.0,-999,0.00,,,-99.99,,2013-04-15 15:37:00,
2013-04-15 10:45:00,59.0,-99.9,-100.00,NNE,14,5.0,7.0,-999,0.00,,,-99.99,,2013-04-15 15:45:00,
2013-04-15 10:55:00,59.0,-99.9,-100.00,North,10,7.0,8.0,-999,0.00,,,-99.99,,2013-04-15 15:55:00,
2013-04-15 11:05:00,59.0,-99.9,-100.00,North,3,6.0,9.0,-999,0.00,,,-99.99,,2013-04-15 16:05:00,
2013-04-15 11:14:00,59.0,-99.9,-100.00,North,356,6.0,8.0,-999,0.00,,,-99.99,,2013-04-15 16:14:00,
2013-04-15 11:34:00,59.0,-99.9,-100.00,North,0,7.0,10.0,-999,0.00,,,-99.99,,2013-04-15 16:34:00,
2013-04-15 11:45:00,59.0,-99.9,-100.00,North,0,7.0,10.0,-999,0.00,,,-99.99,,2013-04-15 16:45:00,
2013-04-15 11:55:00,59.0,-99.9,-100.00,North,1,8.0,10.0,-999,0.00,,,-99.99,,2013-04-15 16:55:00,
2013-04-15 12:05:00,60.0,-99.9,-100.00,North,350,7.0,9.0,-999,0.00,,,-99.99,,2013-04-15 17:05:00,
2013-04-15 12:15:00,60.0,-99.9,-100.00,North,350,7.0,9.0,-999,0.00,,,-99.99,,2013-04-15 17:15:00,
2013-04-15 12:22:00,61.0,-99.9,-100.00,North,4,8.0,10.0,-999,0.00,,,-99.99,,2013-04-15 17:22:00,
2013-04-15 12:33:00,62.0,-99.9,-100.00,North,353,6.0,8.0,-999,0.00,,,-99.99,,2013-04-15 17:33:00,
2013-04-15 12:44:00,62.0,-99.9,-100.00,North,353,6.0,8.0,-999,0.00,,,-99.99,,2013-04-15 17:44:00,
2013-04-15 12:53:00,62.0,-99.9,-100.00,North,356,7.0,10.0,-999,0.00,,,-99.99,,2013-04-15 17:53:00,
2013-04-15 13:04:00,62.0,-99.9,-100.00,North,359,8.0,12.0,-999,0.00,,,-99.99,,2013-04-15 18:04:00,
2013-04-15 13:13:00,62.0,-99.9,-100.00,North,359,8.0,12.0,-999,0.00,,,-99.99,,2013-04-15 18:13:00,
2013-04-15 13:24:00,64.0,-99.9,-100.00,NNE,17,7.0,9.0,-999,0.00,,,-99.99,,2013-04-15 18:24:00,
2013-04-15 13:33:00,64.0,-99.9,-100.00,North,6,7.0,10.0,-999,0.00,,,-99.99,,2013-04-15 18:33:00,
2013-04-15 13:42:00,64.0,-99.9,-100.00,North,6,7.0,10.0,-999,0.00,,,-99.99,,2013-04-15 18:42:00,
2013-04-15 13:52:00,66.0,-99.9,-100.00,North,352,7.0,10.0,-999,0.00,,,-99.99,,2013-04-15 18:52:00,
2013-04-15 14:02:00,67.0,-99.9,-100.00,North,3,7.0,11.0,-999,0.00,,,-99.99,,2013-04-15 19:02:00,
2013-04-15 14:12:00,67.0,-99.9,-100.00,North,3,7.0,11.0,-999,0.00,,,-99.99,,2013-04-15 19:12:00,
2013-04-15 14:22:00,70.0,-99.9,-100.00,NW,325,4.0,8.0,-999,0.00,,,-99.99,,2013-04-15 19:22:00,
2013-04-15 14:39:00,69.0,-99.9,-100.00,North,7,6.0,8.0,-999,0.00,,,-99.99,,2013-04-15 19:39:00,
2013-04-15 14:59:00,69.0,-99.9,-100.00,North,7,6.0,8.0,-999,0.00,,,-99.99,,2013-04-15 19:59:00,
2013-04-15 15:02:00,71.0,-99.9,-100.00,NNE,18,5.0,7.0,-999,0.00,,,-99.99,,2013-04-15 20:02:00,
2013-04-15 15:12:00,73.0,-99.9,-100.00,North,350,5.0,8.0,-999,0.00,,,-99.99,,2013-04-15 20:12:00,
2013-04-15 15:22:00,74.0,-99.9,-100.00,NNE,13,5.0,7.0,-999,0.00,,,-99.99,,2013-04-15 20:22:00,
2013-04-15 15:32:00,75.0,-99.9,-100.00,North,350,4.0,7.0,-999,0.00,,,-99.99,,2013-04-15 20:32:00,
2013-04-15 15:42:00,75.0,-99.9,-100.00,North,350,4.0,7.0,-999,0.00,,,-99.99,,2013-04-15 20:42:00,
2013-04-15 15:52:00,80.0,-99.9,-100.00,NNW,332,2.0,5.0,-999,0.00,,,-99.99,,2013-04-15 20:52:00,
2013-04-15 16:02:00,82.0,-99.9,-100.00,North,7,1.0,5.0,-999,0.00,,,-99.99,,2013-04-15 21:02:00,
2013-04-15 16:12:00,82.0,-99.9,-100.00,North,7,1.0,5.0,-999,0.00,,,-99.99,,2013-04-15 21:12:00,
2013-04-15 16:22:00,76.0,-99.9,-100.00,NW,325,6.0,9.0,-999,0.00,,,-99.99,,2013-04-15 21:22:00,
2013-04-15 16:33:00,75.0,-99.9,-100.00,NNW,342,3.0,5.0,-999,0.00,,,-99.99,,2013-04-15 21:33:00,
2013-04-15 16:43:00,75.0,-99.9,-100.00,NNW,342,3.0,5.0,-999,0.00,,,-99.99,,2013-04-15 21:43:00,
2013-04-15 16:53:00,77.0,-99.9,-100.00,NW,323,2.0,6.0,-999,0.00,,,-99.99,,2013-04-15 21:53:00,
2013-04-15 17:02:00,74.0,-99.9,-100.00,North,3,5.0,7.0,-999,0.00,,,-99.99,,2013-04-15 22:02:00,
2013-04-15 17:13:00,74.0,-99.9,-100.00,North,3,5.0,7.0,-999,0.00,,,-99.99,,2013-04-15 22:13:00,
2013-04-15 17:23:00,75.0,-99.9,-100.00,NNE,13,6.0,7.0,-999,0.00,,,-99.99,,2013-04-15 22:23:00,
2013-04-15 17:33:00,73.0,-99.9,-100.00,NW,323,8.0,11.0,-999,0.00,,,-99.99,,2013-04-15 22:33:00,
2013-04-15 17:42:00,73.0,-99.9,-100.00,NW,323,8.0,11.0,-999,0.00,,,-99.99,,2013-04-15 22:42:00,
2013-04-15 17:52:00,72.0,-99.9,-100.00,North,357,8.0,10.0,-999,0.00,,,-99.99,,2013-04-15 22:52:00,
2013-04-15 18:02:00,72.0,-99.9,-100.00,NNW,335,8.0,12.0,-999,0.00,,,-99.99,,2013-04-15 23:02:00,
2013-04-15 18:12:00,72.0,-99.9,-100.00,NNW,335,8.0,12.0,-999,0.00,,,-99.99,,2013-04-15 23:12:00,
2013-04-15 18:22:00,71.0,-99.9,-100.00,NNW,342,8.0,11.0,-999,0.00,,,-99.99,,2013-04-15 23:22:00,
2013-04-15 18:32:00,71.0,-99.9,-100.00,North,0,7.0,9.0,-999,0.00,,,-99.99,,2013-04-15 23:32:00,
2013-04-15 18:42:00,71.0,-99.9,-100.00,North,0,7.0,9.0,-999,0.00,,,-99.99,,2013-04-15 23:42:00,
2013-04-15 18:52:00,69.0,-99.9,-100.00,NNW,328,9.0,13.0,-999,0.00,,,-99.99,,2013-04-15 23:52:00,
2013-04-15 19:03:00,68.0,-99.9,-100.00,NNW,340,9.0,14.0,-999,0.00,,,-99.99,,2013-04-16 00:03:00,
2013-04-15 19:12:00,68.0,-99.9,-100.00,NNW,340,9.0,14.0,-999,0.00,,,-99.99,,2013-04-16 00:12:00,
2013-04-15 19:22:00,66.0,-99.9,-100.00,NNW,336,8.0,11.0,-999,0.00,,,-99.99,,2013-04-16 00:22:00,
2013-04-15 19:32:00,64.0,-99.9,-100.00,NNW,336,8.0,11.0,-999,0.00,,,-99.99,,2013-04-16 00:32:00,
2013-04-15 19:42:00,64.0,-99.9,-100.00,NNW,336,8.0,11.0,-999,0.00,,,-99.99,,2013-04-16 00:42:00,
2013-04-15 19:52:00,63.0,-99.9,-100.00,NW,325,9.0,12.0,-999,0.00,,,-99.99,,2013-04-16 00:52:00,
2013-04-15 20:02:00,62.0,-99.9,-100.00,NNW,340,9.0,12.0,-999,0.00,,,-99.99,,2013-04-16 01:02:00,
2013-04-15 20:12:00,62.0,-99.9,-100.00,NNW,342,8.0,13.0,-999,0.00,,,-99.99,,2013-04-16 01:12:00,
2013-04-15 20:22:00,62.0,-99.9,-100.00,NNW,342,8.0,13.0,-999,0.00,,,-99.99,,2013-04-16 01:22:00,
2013-04-15 20:32:00,61.0,-99.9,-100.00,NNW,336,9.0,13.0,-999,0.00,,,-99.99,,2013-04-16 01:32:00,
2013-04-15 20:42:00,61.0,-99.9,-100.00,NNW,336,9.0,13.0,-999,0.00,,,-99.99,,2013-04-16 01:42:00,
2013-04-15 20:52:00,61.0,-99.9,-100.00,North,356,10.0,13.0,-999,0.00,,,-99.99,,2013-04-16 01:52:00,
2013-04-15 21:02:00,60.0,-99.9,-100.00,NNW,345,11.0,15.0,-999,0.00,,,-99.99,,2013-04-16 02:02:00,
2013-04-15 21:12:00,60.0,-99.9,-100.00,NNW,345,11.0,15.0,-999,0.00,,,-99.99,,2013-04-16 02:12:00,
2013-04-15 21:22:00,58.0,-99.9,-100.00,North,4,10.0,14.0,-999,0.00,,,-99.99,,2013-04-16 02:22:00,
2013-04-15 21:32:00,58.0,-99.9,-100.00,North,356,9.0,12.0,-999,0.00,,,-99.99,,2013-04-16 02:32:00,
2013-04-15 21:42:00,58.0,-99.9,-100.00,North,356,9.0,12.0,-999,0.00,,,-99.99,,2013-04-16 02:42:00,
2013-04-15 21:52:00,58.0,-99.9,-100.00,NNW,328,10.0,14.0,-999,0.00,,,-99.99,,2013-04-16 02:52:00,
2013-04-15 22:02:00,57.0,-99.9,-100.00,North,353,9.0,12.0,-999,0.00,,,-99.99,,2013-04-16 03:02:00,
2013-04-15 22:12:00,57.0,-99.9,-100.00,North,353,9.0,12.0,-999,0.00,,,-99.99,,2013-04-16 03:12:00,
2013-04-15 22:22:00,57.0,-99.9,-100.00,NNW,336,9.0,14.0,-999,0.00,,,-99.99,,2013-04-16 03:22:00,
2013-04-15 22:33:00,56.0,-99.9,-100.00,North,349,8.0,12.0,-999,0.00,,,-99.99,,2013-04-16 03:33:00,
2013-04-15 22:43:00,56.0,-99.9,-100.00,North,349,8.0,12.0,-999,0.00,,,-99.99,,2013-04-16 03:43:00,
2013-04-15 22:53:00,55.0,-99.9,-100.00,North,353,7.0,11.0,-999,0.00,,,-99.99,,2013-04-16 03:53:00,
2013-04-15 23:03:00,55.0,-99.9,-100.00,North,350,8.0,12.0,-999,0.00,,,-99.99,,2013-04-16 04:03:00,
2013-04-15 23:13:00,55.0,-99.9,-100.00,North,350,8.0,12.0,-999,0.00,,,-99.99,,2013-04-16 04:13:00,
2013-04-15 23:23:00,55.0,-99.9,-100.00,North,357,9.0,13.0,-999,0.00,,,-99.99,,2013-04-16 04:23:00,
2013-04-15 23:33:00,55.0,-99.9,-100.00,NNW,339,9.0,13.0,-999,0.00,,,-99.99,,2013-04-16 04:33:00,
2013-04-15 23:42:00,55.0,-99.9,-100.00,NNW,339,9.0,13.0,-999,0.00,,,-99.99,,2013-04-16 04:42:00,
2013-04-15 23:53:00,55.0,-99.9,-100.00,NNW,345,10.0,15.0,-999,0.00,,,-99.99,,2013-04-16 04:53:00,